createdAt,value
2023-03-16T00:00:26.209Z,21.05
2023-03-16T00:03:02.463Z,21.06
2023-03-16T00:05:32.799Z,21.06
2023-03-16T00:08:20.475Z,21.07
2023-03-16T00:10:52.509Z,21.08
2023-03-16T00:13:27.902Z,21.08
2023-03-16T00:16:01.143Z,21.06
2023-03-16T00:18:29.863Z,21.07
2023-03-16T00:21:05.765Z,21.09
2023-03-16T00:23:38.124Z,21.07
2023-03-16T00:26:13.387Z,21.07
2023-03-16T00:28:45.090Z,21.07
2023-03-16T00:31:16.304Z,21.06
2023-03-16T00:33:52.654Z,21.05
2023-03-16T00:36:28.585Z,21.06
2023-03-16T00:39:01.512Z,21.05
2023-03-16T00:41:32.089Z,21.05
2023-03-16T00:44:05.631Z,21.07
2023-03-16T00:46:39.113Z,21.06
2023-03-16T00:49:12.110Z,21.05
2023-03-16T00:51:45.232Z,21.06
2023-03-16T00:54:16.086Z,21.06
2023-03-16T00:56:50.524Z,21.05
2023-03-16T00:59:23.954Z,21.04
2023-03-16T01:02:00.297Z,21.03
2023-03-16T01:04:37.780Z,21.02
2023-03-16T01:07:13.731Z,21.00
2023-03-16T01:10:19.362Z,20.99
2023-03-16T01:12:52.370Z,20.97
2023-03-16T01:15:26.123Z,20.97
2023-03-16T01:17:56.419Z,20.97
2023-03-16T01:20:32.436Z,20.94
2023-03-16T01:23:04.803Z,20.92
2023-03-16T01:25:38.607Z,20.91
2023-03-16T01:28:11.415Z,20.90
2023-03-16T01:30:49.705Z,20.89
2023-03-16T01:33:19.527Z,20.87
2023-03-16T01:36:07.298Z,20.87
2023-03-16T01:38:42.899Z,20.85
2023-03-16T01:41:14.954Z,20.84
2023-03-16T01:43:50.573Z,20.86
2023-03-16T01:46:28.732Z,20.82
2023-03-16T01:49:20.193Z,20.81
2023-03-16T01:52:08.028Z,20.80
2023-03-16T01:54:39.958Z,20.79
2023-03-16T01:57:14.884Z,20.78
2023-03-16T01:59:53.748Z,20.78
2023-03-16T02:02:27.646Z,20.77
2023-03-16T02:05:13.574Z,20.76
2023-03-16T02:07:47.266Z,20.74
2023-03-16T02:10:21.206Z,20.73
2023-03-16T02:12:51.293Z,20.73
2023-03-16T02:15:34.494Z,20.72
2023-03-16T02:18:21.541Z,20.73
2023-03-16T02:21:03.237Z,20.71
2023-03-16T02:23:50.656Z,20.70
2023-03-16T02:26:40.037Z,20.70
2023-03-16T02:29:28.490Z,20.70
2023-03-16T02:32:04.130Z,20.69
2023-03-16T02:34:35.436Z,20.67
2023-03-16T02:37:06.209Z,20.67
2023-03-16T02:39:36.483Z,20.66
2023-03-16T02:42:14.260Z,20.66
2023-03-16T02:44:50.154Z,20.65
2023-03-16T02:47:30.536Z,20.63
2023-03-16T02:50:03.788Z,20.62
2023-03-16T02:52:50.050Z,20.61
2023-03-16T02:57:54.770Z,20.60
2023-03-16T03:01:02.149Z,20.58
2023-03-16T03:03:33.051Z,20.57
2023-03-16T03:06:05.392Z,20.57
2023-03-16T03:08:45.837Z,20.57
2023-03-16T03:11:21.949Z,20.56
2023-03-16T03:13:52.465Z,20.53
2023-03-16T03:16:26.013Z,20.53
2023-03-16T03:19:01.654Z,20.52
2023-03-16T03:21:33.501Z,20.48
2023-03-16T03:24:07.703Z,20.49
2023-03-16T03:26:37.874Z,20.46
2023-03-16T03:29:13.858Z,20.47
2023-03-16T03:31:42.596Z,20.46
2023-03-16T03:34:15.023Z,20.46
2023-03-16T03:37:21.504Z,20.45
2023-03-16T03:43:05.790Z,20.43
2023-03-16T03:46:03.881Z,20.42
2023-03-16T03:52:03.663Z,20.40
2023-03-16T03:54:54.202Z,20.41
2023-03-16T03:57:31.969Z,20.38
2023-03-16T04:00:02.593Z,20.38
2023-03-16T04:02:33.312Z,20.37
2023-03-16T04:05:08.635Z,20.36
2023-03-16T04:07:47.270Z,20.34
2023-03-16T04:10:22.538Z,20.33
2023-03-16T04:12:52.749Z,20.32
2023-03-16T04:15:57.344Z,20.32
2023-03-16T04:18:26.616Z,20.30
2023-03-16T04:20:59.845Z,20.29
2023-03-16T04:23:46.107Z,20.28
2023-03-16T04:26:16.353Z,20.26
2023-03-16T04:28:51.800Z,20.26
2023-03-16T04:31:42.982Z,20.25
2023-03-16T04:34:14.198Z,20.25
2023-03-16T04:36:47.317Z,20.23
2023-03-16T04:39:32.762Z,20.22
2023-03-16T04:42:23.935Z,20.22
2023-03-16T04:44:55.417Z,20.21
2023-03-16T04:47:28.513Z,20.19
2023-03-16T04:49:55.486Z,20.18
2023-03-16T04:52:41.180Z,20.19
2023-03-16T04:55:14.980Z,20.17
2023-03-16T05:01:09.669Z,20.15
2023-03-16T05:03:44.643Z,20.15
2023-03-16T05:06:56.841Z,20.13
2023-03-16T05:09:45.335Z,20.11
2023-03-16T05:12:19.123Z,20.11
2023-03-16T05:14:54.284Z,20.10
2023-03-16T05:17:34.846Z,20.10
2023-03-16T05:20:07.569Z,20.09
2023-03-16T05:22:55.375Z,20.11
2023-03-16T05:25:32.456Z,20.11
2023-03-16T05:28:24.305Z,20.10
2023-03-16T05:34:19.914Z,20.10
2023-03-16T05:40:20.353Z,20.09
2023-03-16T05:42:59.234Z,20.09
2023-03-16T05:45:47.815Z,20.09
2023-03-16T05:48:38.087Z,20.10
2023-03-16T05:51:10.851Z,20.08
2023-03-16T05:53:43.763Z,20.10
2023-03-16T05:56:17.482Z,20.10
2023-03-16T05:58:49.270Z,20.09
2023-03-16T06:01:41.047Z,20.09
2023-03-16T06:04:10.824Z,20.08
2023-03-16T06:06:41.671Z,20.07
2023-03-16T06:09:11.237Z,20.09
2023-03-16T06:11:38.687Z,20.11
2023-03-16T06:14:12.227Z,20.10
2023-03-16T06:16:41.860Z,20.11
2023-03-16T06:19:12.673Z,20.14
2023-03-16T06:21:49.122Z,20.17
2023-03-16T06:24:18.083Z,20.17
2023-03-16T06:26:54.275Z,20.18
2023-03-16T06:29:26.998Z,20.20
2023-03-16T06:31:57.759Z,20.20
2023-03-16T06:34:28.641Z,20.21
2023-03-16T06:37:07.319Z,20.21
2023-03-16T06:39:36.218Z,20.21
2023-03-16T06:42:06.280Z,20.20
2023-03-16T06:44:36.686Z,20.20
2023-03-16T06:47:08.978Z,20.19
2023-03-16T06:49:39.358Z,20.19
2023-03-16T06:52:17.529Z,20.19
2023-03-16T06:54:50.459Z,20.17
2023-03-16T06:57:21.656Z,20.16
2023-03-16T06:59:51.266Z,20.15
2023-03-16T07:02:19.247Z,20.15
2023-03-16T07:04:53.516Z,20.14
2023-03-16T07:07:23.513Z,20.15
2023-03-16T07:09:50.899Z,20.15
2023-03-16T07:12:24.922Z,20.16
2023-03-16T07:14:55.265Z,20.17
2023-03-16T07:17:27.194Z,20.19
2023-03-16T07:20:00.173Z,20.19
2023-03-16T07:22:34.277Z,20.19
2023-03-16T07:25:04.982Z,20.20
2023-03-16T07:27:36.792Z,20.21
2023-03-16T07:30:06.427Z,20.21
2023-03-16T07:32:33.456Z,20.21
2023-03-16T07:35:03.896Z,20.21
2023-03-16T07:37:30.997Z,20.20
2023-03-16T07:40:05.371Z,20.18
2023-03-16T07:42:32.925Z,20.19
2023-03-16T07:45:05.117Z,20.18
2023-03-16T07:47:41.977Z,20.19
2023-03-16T07:50:13.704Z,20.20
2023-03-16T07:52:45.853Z,20.19
2023-03-16T07:55:23.307Z,20.18
2023-03-16T07:57:53.176Z,20.18
2023-03-16T08:00:33.352Z,20.18
2023-03-16T08:03:00.916Z,20.19
2023-03-16T08:05:28.781Z,20.19
2023-03-16T08:07:56.328Z,20.20
2023-03-16T08:10:27.261Z,20.20
2023-03-16T08:12:54.979Z,20.20
2023-03-16T08:15:28.376Z,20.20
2023-03-16T08:17:55.396Z,20.20
2023-03-16T08:20:25.576Z,20.21
2023-03-16T08:23:01.746Z,20.21
2023-03-16T08:25:35.171Z,20.21
2023-03-16T08:28:08.681Z,20.21
2023-03-16T08:30:44.379Z,20.22
2023-03-16T08:33:22.993Z,20.22
2023-03-16T08:35:54.499Z,20.22
2023-03-16T08:38:24.910Z,20.23
2023-03-16T08:40:53.500Z,20.23
2023-03-16T08:43:26.846Z,20.25
2023-03-16T08:45:57.064Z,20.25
2023-03-16T08:48:27.118Z,20.27
2023-03-16T08:50:59.099Z,20.25
2023-03-16T08:53:31.983Z,20.26
2023-03-16T08:56:09.104Z,20.27
2023-03-16T08:58:37.465Z,20.25
2023-03-16T09:01:08.350Z,20.26
2023-03-16T09:03:36.359Z,20.24
2023-03-16T09:06:11.443Z,20.25
2023-03-16T09:08:41.859Z,20.25
2023-03-16T09:11:15.576Z,20.22
2023-03-16T09:13:47.548Z,20.22
2023-03-16T09:16:22.870Z,20.22
2023-03-16T09:18:53.796Z,20.21
2023-03-16T09:21:30.369Z,20.21
2023-03-16T09:24:00.384Z,20.21
2023-03-16T09:26:33.154Z,20.23
2023-03-16T09:29:03.606Z,20.24
2023-03-16T09:31:30.869Z,20.24
2023-03-16T09:34:10.198Z,20.24
2023-03-16T09:36:40.198Z,20.25
2023-03-16T09:39:07.182Z,20.25
2023-03-16T09:41:53.694Z,20.25
2023-03-16T09:44:51.254Z,20.25
2023-03-16T09:47:29.662Z,20.26
2023-03-16T09:50:05.028Z,20.26
2023-03-16T09:52:45.629Z,20.27
2023-03-16T09:55:33.701Z,20.27
2023-03-16T09:58:06.441Z,20.27
2023-03-16T10:01:04.140Z,20.26
2023-03-16T10:03:45.033Z,20.28
2023-03-16T10:06:19.036Z,20.27
2023-03-16T10:08:53.040Z,20.25
2023-03-16T10:11:44.276Z,20.26
2023-03-16T10:14:23.017Z,20.26
2023-03-16T10:17:18.331Z,20.27
2023-03-16T10:20:03.365Z,20.27
2023-03-16T10:22:33.663Z,20.27
2023-03-16T10:25:34.155Z,20.28
2023-03-16T10:28:01.529Z,20.28
2023-03-16T10:30:35.899Z,20.31
2023-03-16T10:33:14.868Z,20.31
2023-03-16T10:35:51.598Z,20.33
2023-03-16T10:38:37.553Z,20.34
2023-03-16T10:41:32.706Z,20.35
2023-03-16T10:44:06.037Z,20.35
2023-03-16T10:46:50.014Z,20.39
2023-03-16T10:49:27.185Z,20.40
2023-03-16T10:51:59.708Z,20.39
2023-03-16T10:54:39.004Z,20.39
2023-03-16T10:57:21.088Z,20.41
2023-03-16T11:00:13.458Z,20.39
2023-03-16T11:02:43.386Z,20.40
2023-03-16T11:05:24.833Z,20.40
2023-03-16T11:07:57.007Z,20.37
2023-03-16T11:10:36.195Z,20.38
2023-03-16T11:13:17.456Z,20.36
2023-03-16T11:16:00.746Z,20.35
2023-03-16T11:18:29.705Z,20.36
2023-03-16T11:20:59.882Z,20.38
2023-03-16T11:23:48.625Z,20.36
2023-03-16T11:26:33.677Z,20.35
2023-03-16T11:29:15.749Z,20.34
2023-03-16T11:31:51.989Z,20.34
2023-03-16T11:34:29.868Z,20.34
2023-03-16T11:37:25.982Z,20.32
2023-03-16T11:39:55.605Z,20.33
2023-03-16T11:42:44.719Z,20.35
2023-03-16T11:45:30.427Z,20.33
2023-03-16T11:48:06.453Z,20.34
2023-03-16T11:51:01.269Z,20.33
2023-03-16T11:53:42.869Z,20.34
2023-03-16T11:56:25.288Z,20.33
2023-03-16T11:59:18.474Z,20.34
2023-03-16T12:02:04.329Z,20.35
2023-03-16T12:04:45.207Z,20.38
2023-03-16T12:07:30.446Z,20.37
2023-03-16T12:10:14.946Z,20.40
2023-03-16T12:12:55.133Z,20.42
2023-03-16T12:15:43.757Z,20.44
2023-03-16T12:18:25.372Z,20.46
2023-03-16T12:21:18.357Z,20.48
2023-03-16T12:23:52.497Z,20.50
2023-03-16T12:26:25.858Z,20.52
2023-03-16T12:28:58.396Z,20.52
2023-03-16T12:31:40.137Z,20.53
2023-03-16T12:34:25.330Z,20.53
2023-03-16T12:37:18.225Z,20.49
2023-03-16T12:39:54.122Z,20.50
2023-03-16T12:42:33.083Z,20.52
2023-03-16T12:45:11.004Z,20.52
2023-03-16T12:48:34.055Z,20.51
2023-03-16T12:51:05.791Z,20.49
2023-03-16T12:53:41.639Z,20.50
2023-03-16T12:56:15.023Z,20.47
2023-03-16T12:58:56.638Z,20.47
2023-03-16T13:01:37.764Z,20.48
2023-03-16T13:04:14.676Z,20.46
2023-03-16T13:07:02.127Z,20.45
2023-03-16T13:09:32.105Z,20.45
2023-03-16T13:12:04.784Z,20.48
2023-03-16T13:14:48.145Z,20.50
2023-03-16T13:17:17.850Z,20.52
2023-03-16T13:19:46.295Z,20.53
2023-03-16T13:22:47.411Z,20.53
2023-03-16T13:25:42.521Z,20.51
2023-03-16T13:28:18.862Z,20.49
2023-03-16T13:30:51.856Z,20.44
2023-03-16T13:33:24.097Z,20.49
2023-03-16T13:35:53.482Z,20.49
2023-03-16T13:38:26.153Z,20.47
2023-03-16T13:41:01.593Z,20.46
2023-03-16T13:43:38.666Z,20.45
2023-03-16T13:46:20.819Z,20.44
2023-03-16T13:48:48.547Z,20.44
2023-03-16T13:51:24.552Z,20.44
2023-03-16T13:53:54.900Z,20.45
2023-03-16T13:56:28.004Z,20.43
2023-03-16T13:58:56.626Z,20.42
2023-03-16T14:01:30.083Z,20.44
2023-03-16T14:04:00.820Z,20.43
2023-03-16T14:06:32.791Z,20.41
2023-03-16T14:09:08.211Z,20.42
2023-03-16T14:11:49.325Z,20.42
2023-03-16T14:14:31.984Z,20.45
2023-03-16T14:17:18.842Z,20.44
2023-03-16T14:19:50.302Z,20.46
2023-03-16T14:22:20.489Z,20.49
2023-03-16T14:25:00.363Z,20.52
2023-03-16T14:27:43.009Z,20.52
2023-03-16T14:30:33.573Z,20.52
2023-03-16T14:33:06.051Z,20.52
2023-03-16T14:35:59.743Z,20.51
2023-03-16T14:38:35.350Z,20.52
2023-03-16T14:41:19.913Z,20.50
2023-03-16T14:43:50.383Z,20.47
2023-03-16T14:46:28.939Z,20.49
2023-03-16T14:49:10.627Z,20.47
2023-03-16T14:51:41.028Z,20.46
2023-03-16T14:54:19.483Z,20.45
2023-03-16T14:56:56.309Z,20.45
2023-03-16T14:59:26.581Z,20.46
2023-03-16T15:01:58.749Z,20.46
2023-03-16T15:04:41.309Z,20.45
2023-03-16T15:07:24.762Z,20.48
2023-03-16T15:09:54.344Z,20.46
2023-03-16T15:12:22.699Z,20.38
2023-03-16T15:14:54.417Z,20.30
2023-03-16T15:17:29.381Z,20.32
2023-03-16T15:20:05.925Z,20.29
2023-03-16T15:22:39.567Z,20.26
2023-03-16T15:25:40.389Z,20.27
2023-03-16T15:28:18.300Z,20.28
2023-03-16T15:30:53.709Z,20.29
2023-03-16T15:33:24.449Z,20.30
2023-03-16T15:35:53.500Z,20.30
2023-03-16T15:38:33.069Z,20.30
2023-03-16T15:41:04.300Z,20.30
2023-03-16T15:43:37.500Z,20.32
2023-03-16T15:46:07.163Z,20.32
2023-03-16T15:48:37.440Z,20.35
2023-03-16T15:51:16.530Z,20.34
2023-03-16T15:54:19.313Z,20.32
2023-03-16T15:56:54.678Z,20.30
2023-03-16T15:59:29.542Z,20.29
2023-03-16T16:02:16.889Z,20.30
2023-03-16T16:04:49.805Z,20.28
2023-03-16T16:07:20.607Z,20.27
2023-03-16T16:09:52.904Z,20.27
2023-03-16T16:12:26.532Z,20.25
2023-03-16T16:15:00.224Z,20.24
2023-03-16T16:17:43.816Z,20.24
2023-03-16T16:20:22.353Z,20.22
2023-03-16T16:22:53.330Z,20.20
2023-03-16T16:25:23.668Z,20.20
2023-03-16T16:27:51.676Z,20.20
2023-03-16T16:30:32.322Z,20.20
2023-03-16T16:33:02.634Z,20.22
2023-03-16T16:35:33.053Z,20.23
2023-03-16T16:38:03.842Z,20.23
2023-03-16T16:40:39.227Z,20.24
2023-03-16T16:43:07.137Z,20.24
2023-03-16T16:45:34.055Z,20.27
2023-03-16T16:48:13.261Z,20.28
2023-03-16T16:50:46.616Z,20.29
2023-03-16T16:53:20.110Z,20.31
2023-03-16T16:55:53.394Z,20.31
2023-03-16T16:58:25.047Z,20.32
2023-03-16T17:01:02.160Z,20.32
2023-03-16T17:03:35.960Z,20.30
2023-03-16T17:06:09.075Z,20.29
2023-03-16T17:08:37.729Z,20.29
2023-03-16T17:11:21.059Z,20.31
2023-03-16T17:13:48.378Z,20.30
2023-03-16T17:16:18.691Z,20.29
2023-03-16T17:18:49.458Z,20.28
2023-03-16T17:21:19.165Z,20.27
2023-03-16T17:23:51.014Z,20.27
2023-03-16T17:26:30.585Z,20.25
2023-03-16T17:29:04.151Z,20.23
2023-03-16T17:31:41.172Z,20.22
2023-03-16T17:34:32.555Z,20.21
2023-03-16T17:37:02.628Z,20.22
2023-03-16T17:39:38.622Z,20.23
2023-03-16T17:42:21.045Z,20.23
2023-03-16T17:44:54.776Z,20.24
2023-03-16T17:47:30.367Z,20.24
2023-03-16T17:50:14.827Z,20.25
2023-03-16T17:52:47.594Z,20.25
2023-03-16T17:55:15.993Z,20.27
2023-03-16T17:57:46.589Z,20.28
2023-03-16T18:00:30.343Z,20.28
2023-03-16T18:03:01.215Z,20.28
2023-03-16T18:05:37.661Z,20.28
2023-03-16T18:08:22.853Z,20.29
2023-03-16T18:11:18.134Z,20.28
2023-03-16T18:13:55.937Z,20.27
2023-03-16T18:16:31.059Z,20.25
2023-03-16T18:19:19.866Z,20.24
2023-03-16T18:21:47.029Z,20.26
2023-03-16T18:24:17.797Z,20.23
2023-03-16T18:26:44.754Z,20.23
2023-03-16T18:29:14.463Z,20.23
2023-03-16T18:31:51.765Z,20.23
2023-03-16T18:34:25.582Z,20.25
2023-03-16T18:37:00.151Z,20.27
2023-03-16T18:39:33.350Z,20.27
2023-03-16T18:42:03.795Z,20.27
2023-03-16T18:44:34.948Z,20.27
2023-03-16T18:47:15.275Z,20.26
2023-03-16T18:49:42.216Z,20.25
2023-03-16T18:52:34.773Z,20.26
2023-03-16T18:55:14.601Z,20.26
2023-03-16T18:57:42.077Z,20.26
2023-03-16T19:00:16.641Z,20.26
2023-03-16T19:02:59.027Z,20.26
2023-03-16T19:05:35.701Z,20.27
2023-03-16T19:08:04.673Z,20.28
2023-03-16T19:10:40.710Z,20.31
2023-03-16T19:13:22.049Z,20.32
2023-03-16T19:15:53.967Z,20.35
2023-03-16T19:18:26.894Z,20.38
2023-03-16T19:20:55.556Z,20.39
2023-03-16T19:23:30.249Z,20.42
2023-03-16T19:25:57.568Z,20.43
2023-03-16T19:28:42.061Z,20.45
2023-03-16T19:31:25.857Z,20.46
2023-03-16T19:33:56.118Z,20.50
2023-03-16T19:36:28.739Z,20.52
2023-03-16T19:39:02.278Z,20.53
2023-03-16T19:41:40.825Z,20.55
2023-03-16T19:44:22.147Z,20.56
2023-03-16T19:46:53.125Z,20.57
2023-03-16T19:49:26.735Z,20.57
2023-03-16T19:52:00.200Z,20.58
2023-03-16T19:54:31.311Z,20.58
2023-03-16T19:57:18.530Z,20.59
2023-03-16T19:59:57.949Z,20.62
2023-03-16T20:02:36.130Z,20.63
2023-03-16T20:05:07.292Z,20.64
2023-03-16T20:07:54.710Z,20.66
2023-03-16T20:10:32.139Z,20.68
2023-03-16T20:13:12.022Z,20.69
2023-03-16T20:15:46.526Z,20.70
2023-03-16T20:18:24.228Z,20.72
2023-03-16T20:20:54.692Z,20.73
2023-03-16T20:23:28.187Z,20.73
2023-03-16T20:26:03.292Z,20.76
2023-03-16T20:28:41.325Z,20.77
2023-03-16T20:31:18.517Z,20.78
2023-03-16T20:33:47.167Z,20.79
2023-03-16T20:36:24.918Z,20.79
2023-03-16T20:39:02.199Z,20.80
2023-03-16T20:41:40.372Z,20.80
2023-03-16T20:44:17.938Z,20.83
2023-03-16T20:46:49.517Z,20.83
2023-03-16T20:49:30.089Z,20.84
2023-03-16T20:52:04.021Z,20.85
2023-03-16T20:54:35.545Z,20.86
2023-03-16T20:57:11.251Z,20.87
2023-03-16T20:59:42.485Z,20.87
2023-03-16T21:02:43.278Z,20.86
2023-03-16T21:05:22.324Z,20.89
2023-03-16T21:07:53.021Z,20.91
2023-03-16T21:10:27.688Z,20.91
2023-03-16T21:13:04.812Z,20.90
2023-03-16T21:15:39.754Z,20.90
2023-03-16T21:18:23.533Z,20.89
2023-03-16T21:20:53.876Z,20.89
2023-03-16T21:23:26.772Z,20.88
2023-03-16T21:26:00.945Z,20.87
2023-03-16T21:28:33.598Z,20.87
2023-03-16T21:31:07.387Z,20.88
2023-03-16T21:33:38.022Z,20.87
2023-03-16T21:36:17.249Z,20.86
2023-03-16T21:38:48.781Z,20.86
2023-03-16T21:41:21.610Z,20.86
2023-03-16T21:43:51.801Z,20.86
2023-03-16T21:46:26.485Z,20.86
2023-03-16T21:49:04.699Z,20.84
2023-03-16T21:51:42.073Z,20.83
2023-03-16T21:54:20.879Z,20.84
2023-03-16T21:56:49.178Z,20.83
2023-03-16T21:59:25.823Z,20.83
2023-03-16T22:02:01.840Z,20.83
2023-03-16T22:04:37.640Z,20.83
2023-03-16T22:07:16.403Z,20.83
2023-03-16T22:09:49.814Z,20.81
2023-03-16T22:12:23.128Z,20.82
2023-03-16T22:14:57.499Z,20.82
2023-03-16T22:17:31.239Z,20.80
2023-03-16T22:20:00.584Z,20.83
2023-03-16T22:22:30.862Z,20.80
2023-03-16T22:24:58.056Z,20.80
2023-03-16T22:27:25.441Z,20.80
2023-03-16T22:29:54.854Z,20.80
2023-03-16T22:32:28.615Z,20.79
2023-03-16T22:35:02.203Z,20.79
2023-03-16T22:37:35.706Z,20.78
2023-03-16T22:40:19.714Z,20.79
2023-03-16T22:42:50.599Z,20.78
2023-03-16T22:45:29.843Z,20.78
2023-03-16T22:48:02.675Z,20.77
2023-03-16T22:50:36.056Z,20.76
2023-03-16T22:53:09.932Z,20.76
2023-03-16T22:55:46.174Z,20.77
2023-03-16T22:58:39.996Z,20.76
2023-03-16T23:01:22.058Z,20.75
2023-03-16T23:04:04.536Z,20.76
2023-03-16T23:06:39.790Z,20.75
2023-03-16T23:09:11.337Z,20.76
2023-03-16T23:11:46.096Z,20.76
2023-03-16T23:14:33.235Z,20.75
2023-03-16T23:17:13.581Z,20.75
2023-03-16T23:19:47.705Z,20.75
2023-03-16T23:22:15.819Z,20.75
2023-03-16T23:24:49.866Z,20.74
2023-03-16T23:27:22.253Z,20.73
2023-03-16T23:29:49.930Z,20.73
2023-03-16T23:32:20.865Z,20.72
2023-03-16T23:34:49.915Z,20.73
2023-03-16T23:37:22.891Z,20.72
2023-03-16T23:39:56.718Z,20.72
2023-03-16T23:42:27.892Z,20.73
2023-03-16T23:45:06.484Z,20.72
2023-03-16T23:47:37.544Z,20.72
2023-03-16T23:50:18.777Z,20.72
2023-03-16T23:52:52.013Z,20.70
2023-03-16T23:55:26.364Z,20.71
2023-03-16T23:57:54.531Z,20.69
